sensor_id;sensor_type;location;lat;lon;timestamp;pressure;altitude;pressure_sealevel;temperature;humidity
61674;BME280;47573;43.832;5.974;2023-04-09T00:04:55;95248.41;;;24.13;58.91
61674;BME280;47573;43.832;5.974;2023-04-09T00:11:37;95241.63;;;24.15;58.94
61674;BME280;47573;43.832;5.974;2023-04-09T00:18:18;95246.75;;;24.12;58.90
61674;BME280;47573;43.832;5.974;2023-04-09T00:24:58;95255.00;;;24.00;58.92
61674;BME280;47573;43.832;5.974;2023-04-09T00:31:40;95250.38;;;24.01;59.03
61674;BME280;47573;43.832;5.974;2023-04-09T00:38:20;95244.84;;;23.95;58.80
61674;BME280;47573;43.832;5.974;2023-04-09T00:45:01;95235.19;;;23.88;59.18
61674;BME280;47573;43.832;5.974;2023-04-09T00:51:43;95234.38;;;23.87;58.95
61674;BME280;47573;43.832;5.974;2023-04-09T00:58:24;95231.91;;;23.86;58.96
61674;BME280;47573;43.832;5.974;2023-04-09T01:05:05;95236.53;;;23.85;58.79
61674;BME280;47573;43.832;5.974;2023-04-09T01:11:54;95228.03;;;23.82;58.60
61674;BME280;47573;43.832;5.974;2023-04-09T01:18:42;95227.88;;;23.72;59.14
61674;BME280;47573;43.832;5.974;2023-04-09T01:25:36;95217.72;;;23.67;59.00
61674;BME280;47573;43.832;5.974;2023-04-09T01:32:24;95214.09;;;23.62;59.11
61674;BME280;47573;43.832;5.974;2023-04-09T01:39:05;95209.97;;;23.59;58.95
61674;BME280;47573;43.832;5.974;2023-04-09T01:45:47;95205.50;;;23.53;59.08
61674;BME280;47573;43.832;5.974;2023-04-09T01:52:30;95206.56;;;23.52;59.04
61674;BME280;47573;43.832;5.974;2023-04-09T01:59:11;95202.44;;;23.50;59.00
61674;BME280;47573;43.832;5.974;2023-04-09T02:05:54;95195.25;;;23.44;59.12
61674;BME280;47573;43.832;5.974;2023-04-09T02:12:39;95202.69;;;23.48;58.65
61674;BME280;47573;43.832;5.974;2023-04-09T02:19:21;95205.50;;;23.53;58.39
61674;BME280;47573;43.832;5.974;2023-04-09T02:26:02;95194.34;;;23.55;58.64
61674;BME280;47573;43.832;5.974;2023-04-09T02:32:44;95197.75;;;23.45;58.57
61674;BME280;47573;43.832;5.974;2023-04-09T02:39:24;95198.81;;;23.44;58.83
61674;BME280;47573;43.832;5.974;2023-04-09T02:46:06;95198.75;;;23.39;58.92
61674;BME280;47573;43.832;5.974;2023-04-09T02:52:48;95211.81;;;23.37;58.63
61674;BME280;47573;43.832;5.974;2023-04-09T02:59:28;95212.03;;;23.36;58.78
61674;BME280;47573;43.832;5.974;2023-04-09T03:06:09;95214.44;;;23.32;58.56
61674;BME280;47573;43.832;5.974;2023-04-09T03:12:50;95219.00;;;23.32;58.48
61674;BME280;47573;43.832;5.974;2023-04-09T03:19:31;95222.00;;;23.30;58.61
61674;BME280;47573;43.832;5.974;2023-04-09T03:26:11;95223.56;;;23.26;58.68
61674;BME280;47573;43.832;5.974;2023-04-09T03:32:53;95220.91;;;23.31;58.77
61674;BME280;47573;43.832;5.974;2023-04-09T03:39:34;95218.13;;;23.26;58.93
61674;BME280;47573;43.832;5.974;2023-04-09T03:46:15;95223.97;;;23.18;58.93
61674;BME280;47573;43.832;5.974;2023-04-09T03:52:57;95236.50;;;23.19;58.90
61674;BME280;47573;43.832;5.974;2023-04-09T03:59:38;95232.88;;;23.13;59.04
61674;BME280;47573;43.832;5.974;2023-04-09T04:06:18;95241.63;;;23.15;59.09
61674;BME280;47573;43.832;5.974;2023-04-09T04:13:00;95245.41;;;23.14;58.88
61674;BME280;47573;43.832;5.974;2023-04-09T04:19:41;95239.56;;;23.06;58.98
61674;BME280;47573;43.832;5.974;2023-04-09T04:26:21;95250.72;;;23.21;59.16
61674;BME280;47573;43.832;5.974;2023-04-09T04:33:03;95259.66;;;23.33;59.29
61674;BME280;47573;43.832;5.974;2023-04-09T04:39:44;95257.53;;;23.35;59.84
61674;BME280;47573;43.832;5.974;2023-04-09T04:46:24;95264.47;;;23.43;59.93
61674;BME280;47573;43.832;5.974;2023-04-09T04:53:06;95268.50;;;23.40;59.87
61674;BME280;47573;43.832;5.974;2023-04-09T04:59:47;95275.69;;;23.46;59.93
61674;BME280;47573;43.832;5.974;2023-04-09T05:06:27;95282.31;;;23.50;60.36
61674;BME280;47573;43.832;5.974;2023-04-09T05:13:09;95288.00;;;23.49;60.37
61674;BME280;47573;43.832;5.974;2023-04-09T05:19:50;95299.91;;;23.59;59.98
61674;BME280;47573;43.832;5.974;2023-04-09T05:26:31;95308.09;;;23.59;60.15
61674;BME280;47573;43.832;5.974;2023-04-09T05:33:12;95311.97;;;23.63;60.30
61674;BME280;47573;43.832;5.974;2023-04-09T05:39:53;95320.25;;;23.68;60.19
61674;BME280;47573;43.832;5.974;2023-04-09T05:46:34;95321.97;;;23.74;60.17
61674;BME280;47573;43.832;5.974;2023-04-09T05:53:16;95329.00;;;23.70;60.66
61674;BME280;47573;43.832;5.974;2023-04-09T05:59:56;95324.13;;;23.72;60.64
61674;BME280;47573;43.832;5.974;2023-04-09T06:06:37;95339.13;;;23.75;60.56
61674;BME280;47573;43.832;5.974;2023-04-09T06:13:19;95343.28;;;23.77;60.71
61674;BME280;47573;43.832;5.974;2023-04-09T06:20:00;95340.47;;;23.72;60.65
61674;BME280;47573;43.832;5.974;2023-04-09T06:26:40;95344.28;;;23.71;61.06
61674;BME280;47573;43.832;5.974;2023-04-09T06:33:22;95343.69;;;23.69;61.21
61674;BME280;47573;43.832;5.974;2023-04-09T06:40:04;95357.00;;;23.66;61.02
61674;BME280;47573;43.832;5.974;2023-04-09T06:46:44;95359.00;;;23.70;60.82
61674;BME280;47573;43.832;5.974;2023-04-09T06:53:26;95359.16;;;23.80;60.49
61674;BME280;47573;43.832;5.974;2023-04-09T07:00:08;95364.59;;;23.80;60.70
61674;BME280;47573;43.832;5.974;2023-04-09T07:06:48;95360.97;;;23.91;60.13
61674;BME280;47573;43.832;5.974;2023-04-09T07:13:30;95381.78;;;23.97;59.39
61674;BME280;47573;43.832;5.974;2023-04-09T07:20:11;95383.59;;;24.04;59.49
61674;BME280;47573;43.832;5.974;2023-04-09T07:26:51;95395.13;;;24.11;58.40
61674;BME280;47573;43.832;5.974;2023-04-09T07:33:36;95394.72;;;24.19;58.91
61674;BME280;47573;43.832;5.974;2023-04-09T07:40:16;95405.47;;;24.25;58.69
61674;BME280;47573;43.832;5.974;2023-04-09T07:46:57;95399.00;;;24.31;58.05
61674;BME280;47573;43.832;5.974;2023-04-09T07:53:39;95408.78;;;24.27;57.18
61674;BME280;47573;43.832;5.974;2023-04-09T08:00:19;95421.19;;;24.35;56.55
61674;BME280;47573;43.832;5.974;2023-04-09T08:07:00;95422.34;;;24.39;56.77
61674;BME280;47573;43.832;5.974;2023-04-09T08:13:42;95429.69;;;24.38;57.14
61674;BME280;47573;43.832;5.974;2023-04-09T08:20:22;95433.00;;;24.40;57.74
61674;BME280;47573;43.832;5.974;2023-04-09T08:27:03;95434.91;;;24.40;57.56
61674;BME280;47573;43.832;5.974;2023-04-09T08:33:45;95444.31;;;24.49;57.75
61674;BME280;47573;43.832;5.974;2023-04-09T08:40:25;95437.19;;;24.48;46.44
61674;BME280;47573;43.832;5.974;2023-04-09T08:47:07;95438.34;;;24.52;44.96
61674;BME280;47573;43.832;5.974;2023-04-09T08:53:56;95443.03;;;24.35;41.94
61674;BME280;47573;43.832;5.974;2023-04-09T09:00:37;95447.47;;;24.41;44.05
61674;BME280;47573;43.832;5.974;2023-04-09T09:07:17;95455.72;;;24.46;44.66
61674;BME280;47573;43.832;5.974;2023-04-09T09:14:01;95447.13;;;24.54;44.68
61674;BME280;47573;43.832;5.974;2023-04-09T09:20:42;95454.72;;;24.52;43.82
61674;BME280;47573;43.832;5.974;2023-04-09T09:27:33;95452.75;;;24.64;46.77
61674;BME280;47573;43.832;5.974;2023-04-09T09:34:15;95446.28;;;24.70;47.31
61674;BME280;47573;43.832;5.974;2023-04-09T09:40:55;95449.44;;;24.79;47.63
61674;BME280;47573;43.832;5.974;2023-04-09T09:47:36;95451.41;;;24.66;44.91
61674;BME280;47573;43.832;5.974;2023-04-09T09:54:21;95443.66;;;24.58;48.06
61674;BME280;47573;43.832;5.974;2023-04-09T10:01:07;95445.22;;;24.54;48.55
61674;BME280;47573;43.832;5.974;2023-04-09T10:07:48;95438.94;;;24.54;49.12
61674;BME280;47573;43.832;5.974;2023-04-09T10:14:30;95447.38;;;24.52;49.01
61674;BME280;47573;43.832;5.974;2023-04-09T10:21:16;95432.41;;;24.55;49.75
61674;BME280;47573;43.832;5.974;2023-04-09T10:27:59;95432.25;;;24.45;49.98
61674;BME280;47573;43.832;5.974;2023-04-09T10:34:42;95435.03;;;24.50;49.97
61674;BME280;47573;43.832;5.974;2023-04-09T10:41:26;95421.50;;;24.55;50.29
61674;BME280;47573;43.832;5.974;2023-04-09T10:48:10;95416.59;;;24.57;50.07
61674;BME280;47573;43.832;5.974;2023-04-09T10:54:52;95416.09;;;24.60;50.37
61674;BME280;47573;43.832;5.974;2023-04-09T11:01:33;95409.75;;;24.54;50.43
61674;BME280;47573;43.832;5.974;2023-04-09T11:08:15;95408.41;;;24.57;50.83
61674;BME280;47573;43.832;5.974;2023-04-09T11:14:57;95406.25;;;24.59;50.66
61674;BME280;47573;43.832;5.974;2023-04-09T11:21:40;95399.72;;;24.60;51.16
61674;BME280;47573;43.832;5.974;2023-04-09T11:28:22;95382.25;;;24.61;51.16
61674;BME280;47573;43.832;5.974;2023-04-09T11:35:10;95397.81;;;24.60;51.23
61674;BME280;47573;43.832;5.974;2023-04-09T11:41:51;95391.72;;;24.53;51.42
61674;BME280;47573;43.832;5.974;2023-04-09T11:48:31;95392.91;;;24.62;51.04
61674;BME280;47573;43.832;5.974;2023-04-09T11:55:22;95391.47;;;24.55;51.46
61674;BME280;47573;43.832;5.974;2023-04-09T12:02:04;95383.31;;;24.60;51.69
61674;BME280;47573;43.832;5.974;2023-04-09T12:08:45;95377.28;;;24.58;51.43
61674;BME280;47573;43.832;5.974;2023-04-09T12:15:31;95389.31;;;24.57;51.55
61674;BME280;47573;43.832;5.974;2023-04-09T12:22:11;95383.28;;;24.55;51.51
61674;BME280;47573;43.832;5.974;2023-04-09T12:28:52;95380.84;;;24.58;51.19
61674;BME280;47573;43.832;5.974;2023-04-09T12:35:34;95393.66;;;24.58;51.84
61674;BME280;47573;43.832;5.974;2023-04-09T12:42:14;95387.06;;;24.54;52.05
61674;BME280;47573;43.832;5.974;2023-04-09T12:48:54;95387.06;;;24.54;52.02
61674;BME280;47573;43.832;5.974;2023-04-09T12:55:36;95381.13;;;24.57;52.04
61674;BME280;47573;43.832;5.974;2023-04-09T13:02:17;95378.28;;;24.52;52.32
61674;BME280;47573;43.832;5.974;2023-04-09T13:08:57;95370.38;;;24.50;52.57
61674;BME280;47573;43.832;5.974;2023-04-09T13:15:40;95371.69;;;24.48;52.47
61674;BME280;47573;43.832;5.974;2023-04-09T13:22:21;95361.13;;;24.51;52.88
61674;BME280;47573;43.832;5.974;2023-04-09T13:29:01;95358.75;;;24.60;52.43
61674;BME280;47573;43.832;5.974;2023-04-09T13:35:43;95361.44;;;24.55;52.35
61674;BME280;47573;43.832;5.974;2023-04-09T13:42:23;95350.34;;;24.61;52.47
61674;BME280;47573;43.832;5.974;2023-04-09T13:49:04;95341.19;;;24.51;52.78
61674;BME280;47573;43.832;5.974;2023-04-09T13:55:46;95336.28;;;24.53;52.73
61674;BME280;47573;43.832;5.974;2023-04-09T14:02:26;95333.13;;;24.61;53.00
61674;BME280;47573;43.832;5.974;2023-04-09T14:09:07;95327.59;;;24.56;53.07
61674;BME280;47573;43.832;5.974;2023-04-09T14:15:48;95323.22;;;24.55;52.93
61674;BME280;47573;43.832;5.974;2023-04-09T14:22:29;95317.81;;;24.60;52.35
61674;BME280;47573;43.832;5.974;2023-04-09T14:29:10;95314.19;;;24.54;52.91
61674;BME280;47573;43.832;5.974;2023-04-09T14:35:51;95323.97;;;24.50;53.21
61674;BME280;47573;43.832;5.974;2023-04-09T14:42:32;95322.19;;;24.61;52.65
61674;BME280;47573;43.832;5.974;2023-04-09T14:49:12;95301.88;;;24.52;52.96
61674;BME280;47573;43.832;5.974;2023-04-09T14:55:54;95297.56;;;24.56;53.24
61674;BME280;47573;43.832;5.974;2023-04-09T15:02:35;95293.75;;;24.57;52.98
61674;BME280;47573;43.832;5.974;2023-04-09T15:09:15;95292.63;;;24.53;53.13
61674;BME280;47573;43.832;5.974;2023-04-09T15:15:57;95296.94;;;24.49;53.55
61674;BME280;47573;43.832;5.974;2023-04-09T15:22:38;95285.19;;;24.48;53.71
61674;BME280;47573;43.832;5.974;2023-04-09T15:29:18;95284.91;;;24.50;53.20
61674;BME280;47573;43.832;5.974;2023-04-09T15:36:00;95283.19;;;24.44;53.41
61674;BME280;47573;43.832;5.974;2023-04-09T15:42:41;95287.06;;;24.48;52.99
61674;BME280;47573;43.832;5.974;2023-04-09T15:49:22;95291.97;;;24.46;53.36
61674;BME280;47573;43.832;5.974;2023-04-09T15:56:04;95283.78;;;24.46;53.36
61674;BME280;47573;43.832;5.974;2023-04-09T16:02:45;95287.53;;;24.40;53.60
61674;BME280;47573;43.832;5.974;2023-04-09T16:09:25;95291.84;;;24.36;54.00
61674;BME280;47573;43.832;5.974;2023-04-09T16:16:07;95292.34;;;24.33;53.77
61674;BME280;47573;43.832;5.974;2023-04-09T16:22:48;95297.28;;;24.36;53.79
61674;BME280;47573;43.832;5.974;2023-04-09T16:29:28;95297.28;;;24.36;54.13
61674;BME280;47573;43.832;5.974;2023-04-09T16:36:10;95297.28;;;24.36;44.82
61674;BME280;47573;43.832;5.974;2023-04-09T16:42:51;95307.31;;;24.52;49.69
61674;BME280;47573;43.832;5.974;2023-04-09T16:49:31;95310.63;;;24.54;52.21
61674;BME280;47573;43.832;5.974;2023-04-09T16:56:13;95316.16;;;24.59;52.22
61674;BME280;47573;43.832;5.974;2023-04-09T17:02:54;95315.59;;;24.57;52.42
61674;BME280;47573;43.832;5.974;2023-04-09T17:09:34;95325.69;;;24.56;52.69
61674;BME280;47573;43.832;5.974;2023-04-09T17:16:16;95315.22;;;24.70;52.59
61674;BME280;47573;43.832;5.974;2023-04-09T17:22:57;95324.44;;;24.64;52.77
61674;BME280;47573;43.832;5.974;2023-04-09T17:29:37;95322.84;;;24.68;48.68
61674;BME280;47573;43.832;5.974;2023-04-09T17:36:19;95314.25;;;24.76;52.80
61674;BME280;47573;43.832;5.974;2023-04-09T17:43:00;95323.63;;;24.85;53.31
61674;BME280;47573;43.832;5.974;2023-04-09T17:49:40;95321.47;;;24.87;53.76
61674;BME280;47573;43.832;5.974;2023-04-09T17:56:22;95337.34;;;24.90;54.07
61674;BME280;47573;43.832;5.974;2023-04-09T18:03:03;95338.00;;;24.97;54.21
61674;BME280;47573;43.832;5.974;2023-04-09T18:09:43;95341.03;;;25.01;54.46
61674;BME280;47573;43.832;5.974;2023-04-09T18:16:25;95349.28;;;25.06;54.63
61674;BME280;47573;43.832;5.974;2023-04-09T18:29:46;95374.06;;;25.21;55.01
61674;BME280;47573;43.832;5.974;2023-04-09T18:36:28;95383.56;;;25.18;55.56
61674;BME280;47573;43.832;5.974;2023-04-09T18:43:08;95390.41;;;25.16;56.14
61674;BME280;47573;43.832;5.974;2023-04-09T18:49:49;95399.59;;;25.31;55.97
61674;BME280;47573;43.832;5.974;2023-04-09T18:56:30;95404.25;;;25.52;55.54
61674;BME280;47573;43.832;5.974;2023-04-09T19:03:11;95409.75;;;25.58;55.88
61674;BME280;47573;43.832;5.974;2023-04-09T19:09:51;95425.66;;;25.61;55.81
61674;BME280;47573;43.832;5.974;2023-04-09T19:16:33;95443.19;;;25.65;56.07
61674;BME280;47573;43.832;5.974;2023-04-09T19:23:14;95453.09;;;25.71;56.12
61674;BME280;47573;43.832;5.974;2023-04-09T19:29:54;95467.88;;;25.70;56.46
61674;BME280;47573;43.832;5.974;2023-04-09T19:36:36;95459.41;;;25.71;56.44
61674;BME280;47573;43.832;5.974;2023-04-09T19:43:16;95464.03;;;25.71;56.80
61674;BME280;47573;43.832;5.974;2023-04-09T19:49:57;95471.97;;;25.72;56.93
61674;BME280;47573;43.832;5.974;2023-04-09T19:56:39;95485.09;;;25.70;56.60
61674;BME280;47573;43.832;5.974;2023-04-09T20:03:19;95487.91;;;25.75;56.85
61674;BME280;47573;43.832;5.974;2023-04-09T20:09:59;95495.34;;;25.80;57.47
61674;BME280;47573;43.832;5.974;2023-04-09T20:16:41;95506.28;;;25.80;58.73
61674;BME280;47573;43.832;5.974;2023-04-09T20:23:22;95501.94;;;25.84;59.33
61674;BME280;47573;43.832;5.974;2023-04-09T20:30:03;95498.13;;;25.85;59.32
61674;BME280;47573;43.832;5.974;2023-04-09T20:36:45;95493.75;;;25.84;59.42
61674;BME280;47573;43.832;5.974;2023-04-09T20:43:25;95498.13;;;25.85;59.40
61674;BME280;47573;43.832;5.974;2023-04-09T20:50:06;95495.66;;;25.83;59.44
61674;BME280;47573;43.832;5.974;2023-04-09T20:56:49;95495.66;;;25.83;59.45
61674;BME280;47573;43.832;5.974;2023-04-09T21:03:30;95501.94;;;25.84;59.63
61674;BME280;47573;43.832;5.974;2023-04-09T21:10:10;95501.41;;;25.87;59.46
61674;BME280;47573;43.832;5.974;2023-04-09T21:16:52;95506.88;;;25.87;59.51
61674;BME280;47573;43.832;5.974;2023-04-09T21:23:33;95505.00;;;25.87;59.55
61674;BME280;47573;43.832;5.974;2023-04-09T21:30:13;95508.56;;;25.88;59.33
61674;BME280;47573;43.832;5.974;2023-04-09T21:36:55;95516.50;;;25.89;59.96
61674;BME280;47573;43.832;5.974;2023-04-09T21:43:35;95515.66;;;25.89;59.71
61674;BME280;47573;43.832;5.974;2023-04-09T21:50:16;95514.34;;;25.91;59.63
61674;BME280;47573;43.832;5.974;2023-04-09T21:56:58;95509.97;;;25.90;59.46
61674;BME280;47573;43.832;5.974;2023-04-09T22:03:38;95515.16;;;25.92;59.98
61674;BME280;47573;43.832;5.974;2023-04-09T22:10:19;95515.16;;;25.92;60.04
61674;BME280;47573;43.832;5.974;2023-04-09T22:17:01;95523.63;;;25.90;60.07
61674;BME280;47573;43.832;5.974;2023-04-09T22:23:42;95516.50;;;25.89;60.02
61674;BME280;47573;43.832;5.974;2023-04-09T22:30:22;95518.97;;;25.91;60.12
61674;BME280;47573;43.832;5.974;2023-04-09T22:37:04;95518.97;;;25.91;60.00
61674;BME280;47573;43.832;5.974;2023-04-09T22:43:44;95517.06;;;25.91;60.17
61674;BME280;47573;43.832;5.974;2023-04-09T22:50:25;95518.16;;;25.90;60.06
61674;BME280;47573;43.832;5.974;2023-04-09T22:57:07;95523.63;;;25.90;60.38
61674;BME280;47573;43.832;5.974;2023-04-09T23:03:48;95517.59;;;25.88;60.26
61674;BME280;47573;43.832;5.974;2023-04-09T23:10:28;95528.28;;;25.90;60.16
61674;BME280;47573;43.832;5.974;2023-04-09T23:17:10;95526.59;;;25.89;60.38
61674;BME280;47573;43.832;5.974;2023-04-09T23:23:51;95532.09;;;25.89;60.50
61674;BME280;47573;43.832;5.974;2023-04-09T23:30:31;95524.97;;;25.88;60.49
61674;BME280;47573;43.832;5.974;2023-04-09T23:37:13;95526.59;;;25.89;60.79
61674;BME280;47573;43.832;5.974;2023-04-09T23:43:54;95522.81;;;25.90;60.55
61674;BME280;47573;43.832;5.974;2023-04-09T23:50:36;95523.00;;;25.83;60.34
61674;BME280;47573;43.832;5.974;2023-04-09T23:57:18;95524.75;;;25.68;60.27
